IN-0045 weather

Catholic Medical Centre Helipad
Kangla, Manipur, India

Public forecast

Using degrees Celsius for public forecast. Weather courtesy of forecast.io.

METAR (pilot weather report)

Report is more than 6 hours old.

Closest report is Imphal Airport, 3.7 nm (6.9 km) SW. Retrieved 2019/08/19 12:00 UTC (14 hours ago):

VEIM 191200Z 27009KT 5000 BR SCT018 BKN100 26/23 Q1008 NOSIG

TAF (pilot weather forecast)

Forecast is more than 12 hours old.

Closest forecast is Imphal Airport, 3.7 nm (6.9 km) SW. Retrieved 2017/12/28 12:00 UTC (2 years ago):

TAF VEIM 281100Z 2812/2821 06006KT 4000 BR FEW020 BECMG 2815/2817 00000KT 2000 BR